Troy, OH

8:23 PM EDT en Octubre 31, 2014 (GMT -0400)
Rural | Change Station
CLOSE
Current Station
Estación meteorológica personal
Location: Troy, OH
Altura: 854 ft
Estaciones meteorológicas cercanas

Alt 854 ft 40.01 °N, 84.21 °W | Updated 12 seconds ago

Lluvia
Lluvia
37.9 ° F
Sensación térmica 38 ° F
N
0.0
Viento Variable Viento desde SO
Gusts 4.0 mph

Hoy
Alta -- | Baja -- ° F
--% Posibilidad de precipitaciones
Ayer
Alta -- | Baja -- ° F
Precip. -- pul
8:04 AM 6:35 PM
Cuarto creciente, 60% visible
Presión 29.98 pul
Visibilidad 7.0 Millas
Nubes Muy nublado 1000 ft
Nublado 1700 ft
Vientos helados 38 ° F
Punto de rocío 37 ° F
Humedad 96%
Precipitaciones 0.23 pul
Espesor de la nieve No disponible.
UV 0.0 de una escala de 12
Polen .10 de una escala de 12
Calidad del aire No disponible.
Flu Activity No disponible.
METAR KDAY 312356Z 34017G22KT 7SM -RA BKN010 OVC017 04/03 A2996 RMK AO2 SLP151 P0002 60009 T00440028 10056 20044 53016

More Conditions Fewer Conditions

Presión 29.98 pul
Visibilidad 7.0 Millas
Nubes Muy nublado 1000 ft
Nublado 1700 ft
Vientos helados 38 ° F
Punto de rocío 37 ° F
Humedad 96%
Precipitaciones 0.23 pul
Espesor de la nieve No disponible.
UV 0.0 de una escala de 12
Polen .10 de una escala de 12
Calidad del aire No disponible.
Flu Activity No disponible.
METAR KDAY 312356Z 34017G22KT 7SM -RA BKN010 OVC017 04/03 A2996 RMK AO2 SLP151 P0002 60009 T00440028 10056 20044 53016

More Conditions Fewer Conditions

10-Day Weather Forecast

Almanac

Astronomía

Oct. 31, 2014 Salida Puesta
Hora real
Crepúsculo civil
Crepúsculo náutico
Crepúsculo astronómico
Luna
Horas de luz
Horas de luz
Tomorrow will be .
, % of the Moon is Illuminated

Extremos de hoy

Máximos del estado Bajos del estado

Community

WunderPhotos

Upload Photos

1,766,792 ¡fotos cargadas!

WunderBlogs® & News

Nearby

Calidad del aire

  Calidad del aire Índice AQ Contaminante
Not available.

Grosos de nieve

Estación Profundido Altura

Actividad de terremotos

Ciudad Distance Mag. Tiempo y dato
Magnitud mínima muestra es 2,5.

Temperaturas de aguas costeras

Lugar Temperatura

Estaciones meteorológicas cercanas